Hampton, Illinois
Current Conditions -  °F | °C
As of 12:52 AM on Monday 22 Dec 2014 (Local Time) from KDVN Reporting Station
Overcast Overcast  
Wind Chill: 25°   Ceiling: 4200
Heat Index: 35°   Visibility: 8mi
Dew Point: 30°   Wind: 17mph
Humidity: 82%   Direction: 150°SSE
Pressure: 29.89"   Gusts: 24mph
Location:  41.56°N, 90.41°W
Report Text: KDVN 220652Z AUTO 15015G21KT 8SM BKN042 OVC055 02/M01 A2989 RMK AO2 SLP126 T00171011
Loading
Personal Weather Stations






























Interactive Weather Map New forecast layout! Learn more

10-Day Weather Forecast

Advertisements
Track Severe Weather on mobile